createdAt,value
2022-10-25T00:06:34.897Z,43.21
2022-10-25T00:14:15.536Z,43.1
2022-10-25T00:21:53.432Z,43.18
2022-10-25T00:29:40.300Z,43.17
2022-10-25T00:37:23.866Z,43.24
2022-10-25T00:45:19.408Z,43.21
2022-10-25T00:53:35.316Z,43.22
2022-10-25T01:01:29.783Z,43.15
2022-10-25T01:09:16.042Z,43.17
2022-10-25T01:17:08.642Z,43.18
2022-10-25T01:25:27.960Z,43.27
2022-10-25T01:33:34.807Z,43.2
2022-10-25T01:41:46.447Z,43.25
2022-10-25T01:50:09.491Z,43.18
2022-10-25T01:58:04.075Z,43.18
2022-10-25T02:06:32.388Z,43.18
2022-10-25T02:14:43.082Z,43.2
2022-10-25T02:22:52.651Z,43.18
2022-10-25T02:30:30.485Z,43.2
2022-10-25T02:38:24.630Z,43.26
2022-10-25T02:46:05.499Z,43.25
2022-10-25T02:53:41.461Z,43.22
2022-10-25T03:01:25.590Z,43.18
2022-10-25T03:08:58.850Z,43.23
2022-10-25T03:16:40.460Z,43.2
2022-10-25T03:24:13.597Z,43.21
2022-10-25T03:31:57.373Z,43.21
2022-10-25T03:39:38.535Z,43.21
2022-10-25T03:47:11.198Z,43.23
2022-10-25T03:54:47.143Z,43.23
2022-10-25T04:02:17.632Z,43.26
2022-10-25T04:09:54.111Z,43.29
2022-10-25T04:17:38.926Z,43.3
2022-10-25T04:25:11.001Z,43.16
2022-10-25T04:32:52.354Z,43.3
2022-10-25T04:40:33.486Z,43.34
2022-10-25T04:48:22.523Z,43.38
2022-10-25T04:55:58.985Z,43.3
2022-10-25T05:03:37.738Z,43.35
2022-10-25T05:11:15.177Z,43.38
2022-10-25T05:18:57.555Z,43.31
2022-10-25T05:26:33.582Z,43.26
2022-10-25T05:34:04.456Z,43.25
2022-10-25T05:41:44.508Z,43.26
2022-10-25T05:49:15.085Z,43.2
2022-10-25T05:56:52.351Z,43.18
2022-10-25T06:04:37.452Z,43.28
2022-10-25T06:12:10.054Z,43.21
2022-10-25T06:19:57.355Z,43.21
2022-10-25T06:27:41.530Z,43.18
2022-10-25T06:35:23.185Z,43.21
2022-10-25T06:43:07.020Z,43.12
2022-10-25T06:50:56.910Z,43.06
2022-10-25T06:58:48.099Z,43.09
2022-10-25T07:06:24.302Z,43.01
2022-10-25T07:14:08.693Z,43.01
2022-10-25T07:21:47.169Z,43.01
2022-10-25T07:29:36.437Z,43.06
2022-10-25T07:37:14.207Z,43.06
2022-10-25T07:44:41.318Z,43.09
2022-10-25T07:52:38.692Z,43.04
2022-10-25T08:00:35.119Z,43.05
2022-10-25T08:08:08.588Z,43.08
2022-10-25T08:16:00.090Z,43.09
2022-10-25T08:23:41.672Z,43.02
2022-10-25T08:31:28.589Z,43.07
2022-10-25T08:39:04.287Z,43.01
2022-10-25T08:47:17.212Z,43.05
2022-10-25T08:55:27.570Z,43.05
2022-10-25T09:03:47.286Z,43
2022-10-25T09:11:48.450Z,42.95
2022-10-25T09:20:01.962Z,42.89
2022-10-25T09:28:21.503Z,42.95
2022-10-25T09:36:32.291Z,42.91
2022-10-25T09:44:40.801Z,42.94
2022-10-25T09:52:46.806Z,42.91
2022-10-25T10:00:44.069Z,42.79
2022-10-25T10:08:48.902Z,42.6
2022-10-25T10:17:15.715Z,42.74
2022-10-25T10:25:12.564Z,42.68
2022-10-25T10:33:14.112Z,42.47
2022-10-25T10:40:52.296Z,42.7
2022-10-25T10:49:04.173Z,42.59
2022-10-25T10:57:00.557Z,42.53
2022-10-25T11:05:07.116Z,42.55
2022-10-25T11:20:52.531Z,42.21
2022-10-25T11:29:01.694Z,42.58
2022-10-25T11:36:49.744Z,42.64
2022-10-25T11:44:51.163Z,42.65
2022-10-25T11:53:03.430Z,42.71
2022-10-25T12:01:18.464Z,42.77
2022-10-25T12:09:32.371Z,42.72
2022-10-25T12:17:33.162Z,42.82
2022-10-25T12:25:30.133Z,42.72
2022-10-25T12:33:29.883Z,42.66
2022-10-25T12:41:44.344Z,42.41
2022-10-25T12:49:58.851Z,42.58
2022-10-25T12:57:50.815Z,42.48
2022-10-25T13:05:52.842Z,42.65
2022-10-25T13:13:40.914Z,42.5
2022-10-25T13:21:39.597Z,42.53
2022-10-25T13:29:43.619Z,42.55
2022-10-25T13:37:29.864Z,42.5
2022-10-25T13:45:20.788Z,42.54
2022-10-25T13:53:17.597Z,42.6
2022-10-25T14:01:25.191Z,42.38
2022-10-25T14:09:44.819Z,42.42
2022-10-25T14:17:57.801Z,42.32
2022-10-25T14:26:05.830Z,42.37
2022-10-25T14:33:54.798Z,42.54
2022-10-25T14:41:44.581Z,42.51
2022-10-25T14:49:19.904Z,42.42
2022-10-25T14:57:18.831Z,42.23
2022-10-25T15:05:15.893Z,42.38
2022-10-25T15:13:07.565Z,42.45
2022-10-25T15:21:00.142Z,42.54
2022-10-25T15:28:58.278Z,44.08
2022-10-25T15:36:53.779Z,43.37
2022-10-25T15:44:36.667Z,43.11
2022-10-25T15:52:33.685Z,43.13
2022-10-25T16:00:15.186Z,43.05
2022-10-25T16:07:56.843Z,42.94
2022-10-25T16:15:41.883Z,42.9
2022-10-25T16:23:22.367Z,42.66
2022-10-25T16:31:06.869Z,42.71
2022-10-25T16:38:30.108Z,42.78
2022-10-25T16:46:23.818Z,43.05
2022-10-25T16:53:53.725Z,43.26
2022-10-25T17:01:19.165Z,43.3
2022-10-25T17:09:07.439Z,43.34
2022-10-25T17:16:39.308Z,43.36
2022-10-25T17:24:20.401Z,43.6
2022-10-25T17:32:07.442Z,43.4
2022-10-25T17:39:36.727Z,43.46
2022-10-25T17:47:08.295Z,43.35
2022-10-25T17:54:45.862Z,43.38
2022-10-25T18:02:21.290Z,43.39
2022-10-25T18:09:58.185Z,43.39
2022-10-25T18:17:38.538Z,43.38
2022-10-25T18:25:11.500Z,43.4
2022-10-25T18:32:36.548Z,43.51
2022-10-25T18:40:02.303Z,43.5
2022-10-25T18:47:37.404Z,43.55
2022-10-25T18:55:15.787Z,43.54
2022-10-25T19:03:06.272Z,43.47
2022-10-25T19:10:45.877Z,43.36
2022-10-25T19:18:18.194Z,43.07
2022-10-25T19:25:59.573Z,43.26
2022-10-25T19:33:29.748Z,43.13
2022-10-25T19:40:53.496Z,43.17
2022-10-25T19:48:27.390Z,43.17
2022-10-25T19:55:59.902Z,43.14
2022-10-25T20:03:33.546Z,42.83
2022-10-25T20:11:18.963Z,42.62
2022-10-25T20:18:46.036Z,42.98
2022-10-25T20:26:19.477Z,43.03
2022-10-25T20:34:06.247Z,43.25
2022-10-25T20:41:37.325Z,43.24
2022-10-25T20:49:03.646Z,43.11
2022-10-25T20:56:38.108Z,43.16
2022-10-25T21:04:03.529Z,43.15
2022-10-25T21:11:36.654Z,43.12
2022-10-25T21:19:16.142Z,43.32
2022-10-25T21:27:05.451Z,43.23
2022-10-25T21:34:55.886Z,43.14
2022-10-25T21:42:33.054Z,43.08
2022-10-25T21:50:03.538Z,43.3
2022-10-25T21:57:42.985Z,43.26
2022-10-25T22:05:05.814Z,43.26
2022-10-25T22:12:52.721Z,43.31
2022-10-25T22:20:37.149Z,43.38
2022-10-25T22:28:02.035Z,43.44
2022-10-25T22:35:48.524Z,43.33
2022-10-25T22:43:32.836Z,43.15
2022-10-25T22:51:03.903Z,43.19
2022-10-25T22:58:37.699Z,43.2
2022-10-25T23:06:19.677Z,43.26
2022-10-25T23:14:13.506Z,43.31
2022-10-25T23:22:03.526Z,43.24
2022-10-25T23:29:41.541Z,43.17
2022-10-25T23:37:23.097Z,43.24
2022-10-25T23:44:58.070Z,43.18
2022-10-25T23:52:49.446Z,43.26
